Weather at Hokkaido University Yubari River Gliderport

Public forecast

Using degrees Celsius for public forecast. Weather courtesy of forecast.io.

Closest aviation weather report (METAR) to Hokkaido University Yubari River Gliderport

Closest report is Sapporo Okadama Airport, 10.8 nm (20.0 km) W. Retrieved 2021/05/11 00:00 UTC (13 minutes ago):

RJCO 110000Z 32010KT 8000 -RA FEW006 BKN010 BKN020 08/06 Q1015

Closest aviation forecast (TAF) to Hokkaido University Yubari River Gliderport

Closest forecast is New Chitose Airport, 20.2 nm (37.4 km) S. Retrieved 2021-05-11 00:32 UTC (0 seconds ago):

TAF RJCC 102305Z 1100/1206 34016KT 9999 FEW015 BKN030 TEMPO 1101/1109 34020G30KT BECMG 1112/1115 34006KT BECMG 1121/1200 17011KT